Time;durP1;ratioP1;P1;durP2;ratioP2;P2;SDS_P1;SDS_P2;PMS_P1;PMS_P2;Temp;Humidity;BMP_temperature;BMP_pressure;BME280_temperature;BME280_humidity;BME280_pressure;Samples;Min_cycle;Max_cycle;Signal;HPM_P1;HPM_P2
2023/08/25 00:01:34;;;;;;;29.00;27.10;;;;;;;;;;5091199;28;20439;-77
2023/08/25 00:04:02;;;;;;;27.47;25.50;;;;;;;;;;5091984;28;21041;-77
2023/08/25 00:06:29;;;;;;;27.27;25.33;;;;;;;;;;5092226;28;20461;-78
2023/08/25 00:08:56;;;;;;;26.10;24.60;;;;;;;;;;5090842;28;20524;-76
2023/08/25 00:11:23;;;;;;;28.17;26.13;;;;;;;;;;5091569;28;20411;-77
2023/08/25 00:13:50;;;;;;;28.20;26.40;;;;;;;;;;5091814;28;20448;-78
2023/08/25 00:16:17;;;;;;;26.70;24.90;;;;;;;;;;5092084;28;20407;-77
2023/08/25 00:18:45;;;;;;;25.50;23.80;;;;;;;;;;5092177;28;20480;-77
2023/08/25 00:21:14;;;;;;;27.27;25.47;;;;;;;;;;5091370;28;20494;-76
2023/08/25 00:23:41;;;;;;;28.73;27.13;;;;;;;;;;5091860;28;20477;-77
2023/08/25 00:26:09;;;;;;;27.80;26.00;;;;;;;;;;5091647;28;20416;-77
2023/08/25 00:28:36;;;;;;;27.40;25.80;;;;;;;;;;5091584;28;20448;-77
2023/08/25 00:31:03;;;;;;;26.13;24.43;;;;;;;;;;5091211;28;20437;-77
2023/08/25 00:33:30;;;;;;;26.33;24.80;;;;;;;;;;5091637;28;20534;-77
2023/08/25 00:35:57;;;;;;;26.67;25.07;;;;;;;;;;5091197;28;20925;-77
2023/08/25 00:38:28;;;;;;;26.73;24.93;;;;;;;;;;5091820;28;20457;-77
2023/08/25 00:40:55;;;;;;;28.27;26.53;;;;;;;;;;5091255;28;20430;-76
2023/08/25 00:43:22;;;;;;;28.17;26.17;;;;;;;;;;5091580;28;20526;-77
2023/08/25 00:45:49;;;;;;;27.47;25.60;;;;;;;;;;5091538;28;20410;-77
2023/08/25 00:48:16;;;;;;;28.57;26.70;;;;;;;;;;5091577;28;20441;-76
2023/08/25 00:50:44;;;;;;;27.80;25.93;;;;;;;;;;5090699;28;20412;-77
2023/08/25 00:53:11;;;;;;;27.93;26.17;;;;;;;;;;5091481;28;20473;-79
2023/08/25 00:55:40;;;;;;;26.90;25.30;;;;;;;;;;5090649;28;20447;-77
2023/08/25 00:58:07;;;;;;;26.90;25.17;;;;;;;;;;5091513;28;20415;-77
2023/08/25 01:00:35;;;;;;;27.10;25.23;;;;;;;;;;5090436;28;20463;-77
2023/08/25 01:03:03;;;;;;;27.33;25.60;;;;;;;;;;5091188;28;20439;-77
2023/08/25 01:05:30;;;;;;;26.93;25.23;;;;;;;;;;5091293;28;20476;-76
2023/08/25 01:07:57;;;;;;;27.13;25.40;;;;;;;;;;5086114;28;20452;-78
2023/08/25 01:10:27;;;;;;;26.23;24.53;;;;;;;;;;5090527;28;20949;-76
2023/08/25 01:13:00;;;;;;;25.73;24.13;;;;;;;;;;5091420;28;20464;-77
2023/08/25 01:15:29;;;;;;;24.90;23.40;;;;;;;;;;5091592;28;20422;-76
2023/08/25 01:18:00;;;;;;;25.57;24.07;;;;;;;;;;5091485;28;20462;-77
2023/08/25 01:20:28;;;;;;;25.30;23.80;;;;;;;;;;5090964;28;20492;-77
2023/08/25 01:23:01;;;;;;;26.33;24.63;;;;;;;;;;5091057;28;20468;-79
2023/08/25 01:25:30;;;;;;;26.50;24.80;;;;;;;;;;5091326;28;20457;-77
2023/08/25 01:27:58;;;;;;;25.63;24.07;;;;;;;;;;5091167;28;20448;-78
2023/08/25 01:30:26;;;;;;;26.93;25.13;;;;;;;;;;5090358;28;20441;-78
2023/08/25 01:32:53;;;;;;;26.97;25.27;;;;;;;;;;5091686;28;20469;-77
2023/08/25 01:35:23;;;;;;;24.97;23.47;;;;;;;;;;5090793;28;20427;-77
2023/08/25 01:37:55;;;;;;;25.73;24.17;;;;;;;;;;5091065;28;20427;-76
2023/08/25 01:40:25;;;;;;;26.07;24.53;;;;;;;;;;5089976;28;20968;-77
2023/08/25 01:42:55;;;;;;;25.77;24.03;;;;;;;;;;5090808;28;20493;-76
2023/08/25 01:45:23;;;;;;;25.27;23.77;;;;;;;;;;5091104;28;20456;-77
2023/08/25 01:47:51;;;;;;;26.23;24.50;;;;;;;;;;5090606;28;20809;-77
2023/08/25 01:50:18;;;;;;;25.47;23.90;;;;;;;;;;5090365;28;20445;-76
2023/08/25 01:52:45;;;;;;;25.87;24.37;;;;;;;;;;5090483;28;21033;-77
2023/08/25 01:55:12;;;;;;;25.80;24.20;;;;;;;;;;5090680;28;20449;-77
2023/08/25 01:57:39;;;;;;;25.50;23.83;;;;;;;;;;5090638;28;20424;-77
2023/08/25 02:00:09;;;;;;;25.43;23.63;;;;;;;;;;5090356;28;20466;-77
2023/08/25 02:02:36;;;;;;;26.00;24.20;;;;;;;;;;5090802;28;20811;-76
2023/08/25 02:05:03;;;;;;;25.20;23.67;;;;;;;;;;5090482;28;20941;-77
2023/08/25 02:07:30;;;;;;;25.50;24.00;;;;;;;;;;5092599;28;20426;-76
2023/08/25 02:09:57;;;;;;;26.70;25.00;;;;;;;;;;5093156;28;20412;-77
2023/08/25 02:12:24;;;;;;;26.37;24.77;;;;;;;;;;5094612;28;20431;-76
2023/08/25 02:14:51;;;;;;;26.10;24.60;;;;;;;;;;5094513;28;20452;-75
2023/08/25 02:17:20;;;;;;;25.70;24.07;;;;;;;;;;5094568;28;20419;-77
2023/08/25 02:19:47;;;;;;;24.93;23.43;;;;;;;;;;5093850;28;20487;-77
2023/08/25 02:22:14;;;;;;;25.23;23.67;;;;;;;;;;5094300;28;20471;-76
2023/08/25 02:24:41;;;;;;;25.60;23.87;;;;;;;;;;5094232;28;20513;-77
2023/08/25 02:27:08;;;;;;;24.47;23.07;;;;;;;;;;5094387;28;20468;-78
2023/08/25 02:29:35;;;;;;;26.50;24.60;;;;;;;;;;5094251;28;20407;-77
2023/08/25 02:32:02;;;;;;;26.77;25.03;;;;;;;;;;5093624;28;20448;-77
2023/08/25 02:34:31;;;;;;;27.17;25.40;;;;;;;;;;5094269;28;20783;-76
2023/08/25 02:36:58;;;;;;;25.03;23.43;;;;;;;;;;5094609;28;20447;-77
2023/08/25 02:39:25;;;;;;;26.13;24.63;;;;;;;;;;5094037;28;20483;-77
2023/08/25 02:41:52;;;;;;;26.80;24.90;;;;;;;;;;5093140;28;20445;-77
2023/08/25 02:44:19;;;;;;;27.20;25.40;;;;;;;;;;5093816;28;20524;-76
2023/08/25 02:46:46;;;;;;;26.77;24.97;;;;;;;;;;5093414;28;20828;-78
2023/08/25 02:49:13;;;;;;;28.60;26.60;;;;;;;;;;5093431;28;20438;-77
2023/08/25 02:51:41;;;;;;;28.13;26.13;;;;;;;;;;5093413;28;20441;-76
2023/08/25 02:54:08;;;;;;;28.60;26.50;;;;;;;;;;5093764;28;20468;-77
2023/08/25 02:56:35;;;;;;;27.33;25.53;;;;;;;;;;5093713;28;20419;-76
2023/08/25 02:59:02;;;;;;;27.97;26.27;;;;;;;;;;5093743;28;20420;-76
2023/08/25 03:01:29;;;;;;;25.70;24.23;;;;;;;;;;5092679;28;20958;-77
2023/08/25 03:03:56;;;;;;;26.13;24.60;;;;;;;;;;5093193;28;20443;-76
2023/08/25 03:06:23;;;;;;;26.77;25.03;;;;;;;;;;5093691;28;20457;-77
2023/08/25 03:08:52;;;;;;;26.13;24.47;;;;;;;;;;5092327;28;20427;-77
2023/08/25 03:11:19;;;;;;;26.13;24.40;;;;;;;;;;5092661;28;20490;-78
2023/08/25 03:13:46;;;;;;;25.00;23.50;;;;;;;;;;5093295;28;20465;-77
2023/08/25 03:16:13;;;;;;;25.77;24.17;;;;;;;;;;5093438;28;20461;-76
2023/08/25 03:18:41;;;;;;;26.83;24.83;;;;;;;;;;5092217;28;20963;-77
2023/08/25 03:21:08;;;;;;;25.13;23.63;;;;;;;;;;5092690;28;20520;-77
2023/08/25 03:23:35;;;;;;;27.30;25.60;;;;;;;;;;5093161;28;20489;-77
2023/08/25 03:26:05;;;;;;;28.70;26.70;;;;;;;;;;5093134;28;20784;-77
2023/08/25 03:28:32;;;;;;;27.13;25.43;;;;;;;;;;5093239;28;20444;-77
2023/08/25 03:30:59;;;;;;;27.30;25.60;;;;;;;;;;5092215;28;20412;-77
2023/08/25 03:33:26;;;;;;;26.27;24.50;;;;;;;;;;5092739;28;20585;-77
2023/08/25 03:35:53;;;;;;;25.80;24.07;;;;;;;;;;5092802;28;20415;-77
2023/08/25 03:38:20;;;;;;;25.67;24.27;;;;;;;;;;5092441;28;21234;-77
2023/08/25 03:40:47;;;;;;;26.80;24.73;;;;;;;;;;5091717;28;20932;-78
2023/08/25 03:43:16;;;;;;;25.93;24.23;;;;;;;;;;5092605;28;20514;-77
2023/08/25 03:45:43;;;;;;;25.73;24.13;;;;;;;;;;5092660;28;20808;-77
2023/08/25 03:48:10;;;;;;;24.83;23.23;;;;;;;;;;5092544;28;20445;-77
2023/08/25 03:50:37;;;;;;;28.23;25.83;;;;;;;;;;5092032;28;20441;-77
2023/08/25 03:53:04;;;;;;;25.73;24.23;;;;;;;;;;5092526;28;20837;-77
2023/08/25 03:55:31;;;;;;;26.00;24.47;;;;;;;;;;5092513;28;20782;-77
2023/08/25 03:57:58;;;;;;;26.23;24.43;;;;;;;;;;5092435;28;20416;-77
2023/08/25 04:00:26;;;;;;;26.13;24.33;;;;;;;;;;5091521;28;20467;-76
2023/08/25 04:02:53;;;;;;;25.93;24.23;;;;;;;;;;5092379;28;20481;-78
2023/08/25 04:05:21;;;;;;;24.90;23.40;;;;;;;;;;5092473;28;20423;-77
2023/08/25 04:07:48;;;;;;;26.30;24.60;;;;;;;;;;5092185;28;20431;-76
2023/08/25 04:10:16;;;;;;;25.63;24.03;;;;;;;;;;5090926;28;21129;-77
2023/08/25 04:12:43;;;;;;;26.43;24.60;;;;;;;;;;5092037;28;21019;-77
2023/08/25 04:15:10;;;;;;;25.43;23.50;;;;;;;;;;5092058;28;20448;-77
2023/08/25 04:17:39;;;;;;;26.07;24.07;;;;;;;;;;5091969;28;20896;-78
2023/08/25 04:20:06;;;;;;;25.13;23.57;;;;;;;;;;5091319;28;20463;-77
2023/08/25 04:22:33;;;;;;;25.30;23.80;;;;;;;;;;5092029;28;20442;-77
2023/08/25 04:25:00;;;;;;;25.63;24.10;;;;;;;;;;5092092;28;20419;-77
2023/08/25 04:27:27;;;;;;;27.07;25.43;;;;;;;;;;5091966;28;20957;-77
2023/08/25 04:29:54;;;;;;;28.83;27.03;;;;;;;;;;5090537;28;20444;-77
2023/08/25 04:32:22;;;;;;;27.00;25.10;;;;;;;;;;5090681;28;21071;-78
2023/08/25 04:34:50;;;;;;;26.37;24.77;;;;;;;;;;5091539;28;20448;-75
2023/08/25 04:37:18;;;;;;;27.40;25.47;;;;;;;;;;5091898;28;20437;-76
2023/08/25 04:39:45;;;;;;;27.87;25.57;;;;;;;;;;5091256;28;20455;-75
2023/08/25 04:42:12;;;;;;;26.50;24.60;;;;;;;;;;5090528;28;20527;-75
2023/08/25 04:44:39;;;;;;;25.30;23.80;;;;;;;;;;5091919;28;20502;-76
2023/08/25 04:47:06;;;;;;;26.10;24.43;;;;;;;;;;5091609;28;20430;-75
2023/08/25 04:49:33;;;;;;;25.73;23.87;;;;;;;;;;5091342;28;20427;-77
2023/08/25 04:52:02;;;;;;;25.33;23.73;;;;;;;;;;5090974;28;20441;-76
2023/08/25 04:54:29;;;;;;;26.00;23.93;;;;;;;;;;5091616;28;20444;-75
2023/08/25 04:56:56;;;;;;;27.00;24.83;;;;;;;;;;5091512;28;20452;-75
2023/08/25 04:59:23;;;;;;;25.83;24.13;;;;;;;;;;5091135;28;20452;-75
2023/08/25 05:01:50;;;;;;;26.50;24.60;;;;;;;;;;5089054;28;21018;-77
2023/08/25 05:04:17;;;;;;;26.27;24.57;;;;;;;;;;5076998;28;20414;-75
2023/08/25 05:06:44;;;;;;;26.27;24.60;;;;;;;;;;5091050;28;20467;-75
2023/08/25 05:09:12;;;;;;;27.43;25.63;;;;;;;;;;5088970;28;20427;-76
2023/08/25 05:11:40;;;;;;;26.57;24.67;;;;;;;;;;5090509;28;20445;-75
2023/08/25 05:14:07;;;;;;;26.10;24.30;;;;;;;;;;5090799;28;20415;-75
2023/08/25 05:16:34;;;;;;;27.07;25.20;;;;;;;;;;5091056;28;20480;-76
2023/08/25 05:19:01;;;;;;;27.03;25.10;;;;;;;;;;5090867;28;20424;-76
2023/08/25 05:21:28;;;;;;;28.07;25.97;;;;;;;;;;5089808;28;20476;-77
2023/08/25 05:24:10;;;;;;;26.53;24.70;;;;;;;;;;5090301;27;20841;-76
2023/08/25 05:26:38;;;;;;;29.67;27.50;;;;;;;;;;5090925;28;20407;-76
2023/08/25 05:29:05;;;;;;;28.30;26.27;;;;;;;;;;5090740;28;20411;-75
2023/08/25 05:31:32;;;;;;;27.50;25.70;;;;;;;;;;5089835;28;20995;-76
2023/08/25 05:33:59;;;;;;;27.30;25.43;;;;;;;;;;5089314;28;20484;-75
2023/08/25 05:36:26;;;;;;;27.00;25.30;;;;;;;;;;5090007;28;20456;-77
2023/08/25 05:38:54;;;;;;;26.73;25.00;;;;;;;;;;5090444;28;20423;-77
2023/08/25 05:41:21;;;;;;;25.27;23.77;;;;;;;;;;5090080;28;20447;-76
2023/08/25 05:43:49;;;;;;;26.63;25.00;;;;;;;;;;5094184;28;20481;-75
2023/08/25 05:46:16;;;;;;;27.10;25.30;;;;;;;;;;5094720;28;20428;-76
2023/08/25 05:48:43;;;;;;;26.33;24.73;;;;;;;;;;5094969;28;20448;-77
2023/08/25 05:51:10;;;;;;;28.67;26.40;;;;;;;;;;5094136;28;20473;-76
2023/08/25 05:53:37;;;;;;;27.97;26.17;;;;;;;;;;5094446;28;20439;-75
2023/08/25 05:56:04;;;;;;;31.93;29.83;;;;;;;;;;5093974;28;20468;-76
2023/08/25 05:58:32;;;;;;;28.60;26.73;;;;;;;;;;5094804;28;20447;-76
2023/08/25 06:01:00;;;;;;;29.57;27.50;;;;;;;;;;5093878;28;20459;-75
2023/08/25 06:03:27;;;;;;;30.13;28.10;;;;;;;;;;5094245;28;20468;-76
2023/08/25 06:05:54;;;;;;;30.13;27.83;;;;;;;;;;5093680;28;20471;-76
2023/08/25 06:08:21;;;;;;;31.33;28.90;;;;;;;;;;5092812;28;20501;-76
2023/08/25 06:10:49;;;;;;;30.33;28.13;;;;;;;;;;5093867;28;20850;-76
2023/08/25 06:13:16;;;;;;;31.10;28.90;;;;;;;;;;5094006;28;20805;-75
2023/08/25 06:15:43;;;;;;;29.67;27.67;;;;;;;;;;5094482;28;20419;-76
2023/08/25 06:18:11;;;;;;;30.20;28.00;;;;;;;;;;5094265;28;20419;-76
2023/08/25 06:20:39;;;;;;;33.40;31.00;;;;;;;;;;5093394;28;20463;-75
2023/08/25 06:23:06;;;;;;;31.53;29.43;;;;;;;;;;5093330;28;20555;-76
2023/08/25 06:25:33;;;;;;;30.67;28.27;;;;;;;;;;5093486;28;20940;-77
2023/08/25 06:28:00;;;;;;;29.67;27.57;;;;;;;;;;5094916;28;20407;-78
2023/08/25 06:30:29;;;;;;;33.33;30.83;;;;;;;;;;5094961;28;20427;-82
2023/08/25 06:32:56;;;;;;;33.43;31.00;;;;;;;;;;5097266;28;20507;-80
2023/08/25 06:35:24;;;;;;;33.83;31.07;;;;;;;;;;5097938;28;20460;-77
2023/08/25 06:37:51;;;;;;;33.47;30.33;;;;;;;;;;5100141;28;20487;-80
2023/08/25 06:40:19;;;;;;;33.50;30.77;;;;;;;;;;5097283;28;20420;-84
2023/08/25 06:42:47;;;;;;;33.40;30.90;;;;;;;;;;5079715;28;20448;-84
2023/08/25 06:45:14;;;;;;;32.60;30.20;;;;;;;;;;5080777;28;20451;-78
2023/08/25 06:47:41;;;;;;;33.60;31.00;;;;;;;;;;5074843;28;20485;-87
2023/08/25 06:50:09;;;;;;;31.80;29.10;;;;;;;;;;5093787;28;20461;-78
2023/08/25 06:52:37;;;;;;;34.77;31.77;;;;;;;;;;5094873;28;20432;-78
2023/08/25 06:55:04;;;;;;;34.83;32.10;;;;;;;;;;5096056;28;20457;-80
2023/08/25 06:57:34;;;;;;;35.13;31.90;;;;;;;;;;5094377;28;20423;-79
2023/08/25 07:00:01;;;;;;;38.10;34.70;;;;;;;;;;5096348;28;20505;-78
2023/08/25 07:02:28;;;;;;;36.10;33.20;;;;;;;;;;5097412;28;20459;-81
2023/08/25 07:04:55;;;;;;;38.60;35.40;;;;;;;;;;5096190;28;20789;-79
2023/08/25 07:07:25;;;;;;;37.97;34.87;;;;;;;;;;5096051;28;20452;-79
2023/08/25 07:09:54;;;;;;;35.93;32.90;;;;;;;;;;5082569;28;20428;-80
2023/08/25 07:12:21;;;;;;;35.87;33.03;;;;;;;;;;5075553;28;20469;-79
2023/08/25 07:14:48;;;;;;;38.03;34.70;;;;;;;;;;5075609;28;20417;-79
2023/08/25 07:17:15;;;;;;;36.57;33.40;;;;;;;;;;5075796;28;20438;-79
2023/08/25 07:19:42;;;;;;;35.67;32.57;;;;;;;;;;5073923;28;20933;-79
2023/08/25 07:22:09;;;;;;;39.00;35.50;;;;;;;;;;5074604;28;20492;-78
2023/08/25 07:24:36;;;;;;;35.20;32.33;;;;;;;;;;5074592;28;20452;-78
2023/08/25 07:27:05;;;;;;;36.30;33.30;;;;;;;;;;5075678;28;20446;-79
2023/08/25 07:29:32;;;;;;;34.43;31.83;;;;;;;;;;5076589;28;20442;-78
2023/08/25 07:31:59;;;;;;;36.43;33.33;;;;;;;;;;5073730;28;20436;-80
2023/08/25 07:34:26;;;;;;;37.40;34.23;;;;;;;;;;5073457;28;20427;-80
2023/08/25 07:36:54;;;;;;;35.80;32.73;;;;;;;;;;5075143;28;20397;-80
2023/08/25 07:39:21;;;;;;;34.50;31.63;;;;;;;;;;5074876;28;20943;-80
2023/08/25 07:41:48;;;;;;;34.53;31.77;;;;;;;;;;5074466;28;20481;-82
2023/08/25 07:44:16;;;;;;;36.00;33.07;;;;;;;;;;5075556;28;20809;-80
2023/08/25 07:46:43;;;;;;;35.53;32.43;;;;;;;;;;5075121;28;20892;-80
2023/08/25 07:49:11;;;;;;;33.13;30.30;;;;;;;;;;5075240;28;20764;-81
2023/08/25 07:51:38;;;;;;;32.50;29.90;;;;;;;;;;5074120;28;20900;-82
2023/08/25 07:54:06;;;;;;;32.83;30.13;;;;;;;;;;5077569;28;20476;-83
2023/08/25 07:56:34;;;;;;;32.20;29.60;;;;;;;;;;5076635;28;20446;-83
2023/08/25 07:59:01;;;;;;;31.37;28.67;;;;;;;;;;5078166;28;20409;-85
2023/08/25 08:01:30;;;;;;;30.13;27.73;;;;;;;;;;5077920;28;20496;-84
2023/08/25 08:03:57;;;;;;;31.53;29.17;;;;;;;;;;5078463;28;20481;-84
2023/08/25 08:06:24;;;;;;;30.97;28.43;;;;;;;;;;5078459;28;20450;-84
2023/08/25 08:08:51;;;;;;;29.27;26.97;;;;;;;;;;5078008;28;20436;-80
2023/08/25 08:11:19;;;;;;;30.50;28.30;;;;;;;;;;5083807;28;20978;-78
2023/08/25 08:13:47;;;;;;;29.43;26.97;;;;;;;;;;5091902;28;20443;-77
2023/08/25 08:16:14;;;;;;;30.70;28.47;;;;;;;;;;5077794;28;20446;-78
2023/08/25 08:18:42;;;;;;;31.23;28.93;;;;;;;;;;5078686;28;20506;-76
2023/08/25 08:21:09;;;;;;;31.00;28.50;;;;;;;;;;5089322;28;20448;-78
2023/08/25 08:23:36;;;;;;;30.37;28.03;;;;;;;;;;5072688;28;20485;-78
2023/08/25 08:26:04;;;;;;;30.90;28.80;;;;;;;;;;5075532;28;20419;-82
2023/08/25 08:28:31;;;;;;;30.43;27.70;;;;;;;;;;5076382;28;20424;-81
2023/08/25 08:30:58;;;;;;;28.87;26.57;;;;;;;;;;5073475;28;20434;-81
2023/08/25 08:33:25;;;;;;;30.50;28.03;;;;;;;;;;5074814;28;20444;-81
2023/08/25 08:35:54;;;;;;;30.70;28.37;;;;;;;;;;5075547;28;20449;-81
2023/08/25 08:38:21;;;;;;;29.90;27.80;;;;;;;;;;5073829;28;21005;-78
2023/08/25 08:40:49;;;;;;;29.53;27.33;;;;;;;;;;5070271;28;20495;-78
2023/08/25 08:43:17;;;;;;;29.07;26.97;;;;;;;;;;5069978;28;20547;-79
2023/08/25 08:45:44;;;;;;;29.20;27.10;;;;;;;;;;5072771;28;20400;-77
2023/08/25 08:48:12;;;;;;;29.77;27.57;;;;;;;;;;5072517;28;20416;-77
2023/08/25 08:50:39;;;;;;;27.60;25.40;;;;;;;;;;5071530;28;20927;-76
2023/08/25 08:53:08;;;;;;;28.60;26.60;;;;;;;;;;5072989;28;20441;-78
2023/08/25 08:55:35;;;;;;;28.87;26.97;;;;;;;;;;5073217;28;20449;-78
2023/08/25 08:58:03;;;;;;;29.90;27.27;;;;;;;;;;5079637;28;20428;-85
2023/08/25 09:00:31;;;;;;;29.50;27.30;;;;;;;;;;5078254;28;20436;-86
2023/08/25 09:02:59;;;;;;;26.30;24.60;;;;;;;;;;5080271;28;20956;-88
2023/08/25 09:05:28;;;;;;;28.17;25.97;;;;;;;;;;5078228;28;20438;-87
2023/08/25 09:07:58;;;;;;;27.73;25.80;;;;;;;;;;5079757;28;20447;-82
2023/08/25 09:10:27;;;;;;;27.60;25.70;;;;;;;;;;5081043;28;20403;-83
2023/08/25 09:12:54;;;;;;;28.57;26.20;;;;;;;;;;5076727;28;20461;-77
2023/08/25 09:15:26;;;;;;;29.90;27.47;;;;;;;;;;5081482;28;20500;-77
2023/08/25 09:17:54;;;;;;;35.43;32.37;;;;;;;;;;5091518;28;20457;-76
2023/08/25 09:20:22;;;;;;;39.63;35.60;;;;;;;;;;5091125;28;20448;-76
2023/08/25 09:22:55;;;;;;;40.87;37.63;;;;;;;;;;5087964;28;20971;-75
2023/08/25 09:25:22;;;;;;;41.00;37.40;;;;;;;;;;5089747;28;20992;-76
2023/08/25 09:27:55;;;;;;;41.57;37.87;;;;;;;;;;5090382;28;20930;-76
2023/08/25 09:30:22;;;;;;;41.50;38.00;;;;;;;;;;5091206;28;20438;-77
2023/08/25 09:32:49;;;;;;;43.37;39.77;;;;;;;;;;5090529;28;20880;-75
2023/08/25 09:35:21;;;;;;;39.00;35.83;;;;;;;;;;5091794;28;20400;-75
2023/08/25 09:37:48;;;;;;;43.37;39.50;;;;;;;;;;5091717;28;20399;-75
2023/08/25 09:40:16;;;;;;;45.47;41.50;;;;;;;;;;5091105;28;20423;-76
2023/08/25 09:42:43;;;;;;;46.53;42.40;;;;;;;;;;5090900;28;20524;-75
2023/08/25 09:45:12;;;;;;;50.00;45.60;;;;;;;;;;5091404;28;20449;-76
2023/08/25 09:47:41;;;;;;;47.97;43.53;;;;;;;;;;5091676;28;20423;-76
2023/08/25 09:50:08;;;;;;;48.23;43.67;;;;;;;;;;5091058;28;20448;-76
2023/08/25 09:52:38;;;;;;;53.13;48.03;;;;;;;;;;5091875;28;20519;-75
2023/08/25 09:55:07;;;;;;;53.67;48.43;;;;;;;;;;5091483;28;20412;-76
2023/08/25 09:57:34;;;;;;;54.93;49.40;;;;;;;;;;5091776;28;20781;-75
2023/08/25 10:00:04;;;;;;;59.13;53.03;;;;;;;;;;5090999;28;20431;-76
2023/08/25 10:02:32;;;;;;;52.13;47.20;;;;;;;;;;5091447;28;20549;-75
2023/08/25 10:05:00;;;;;;;53.40;48.20;;;;;;;;;;5091812;28;20424;-77
2023/08/25 10:07:27;;;;;;;51.73;47.00;;;;;;;;;;5091358;28;20424;-75
2023/08/25 10:09:54;;;;;;;54.83;49.30;;;;;;;;;;5090688;28;21241;-76
2023/08/25 10:12:22;;;;;;;60.37;54.20;;;;;;;;;;5091164;28;20471;-76
2023/08/25 10:14:52;;;;;;;72.03;56.90;;;;;;;;;;5091355;28;20430;-76
2023/08/25 10:17:19;;;;;;;61.93;55.23;;;;;;;;;;5091510;28;20432;-76
2023/08/25 10:19:49;;;;;;;55.10;49.60;;;;;;;;;;5090611;28;20527;-75
2023/08/25 10:22:16;;;;;;;62.57;56.07;;;;;;;;;;5091196;28;20471;-75
2023/08/25 10:24:44;;;;;;;65.60;57.17;;;;;;;;;;5090948;28;20415;-75
2023/08/25 10:27:11;;;;;;;59.43;53.50;;;;;;;;;;5091162;28;21003;-76
2023/08/25 10:29:38;;;;;;;57.03;51.67;;;;;;;;;;5094765;28;20423;-76
2023/08/25 10:32:06;;;;;;;57.03;51.73;;;;;;;;;;5093534;28;20867;-76
2023/08/25 10:34:37;;;;;;;52.20;47.40;;;;;;;;;;5095043;28;20421;-76
2023/08/25 10:37:06;;;;;;;57.60;51.97;;;;;;;;;;5095096;28;20455;-76
2023/08/25 10:39:46;;;;;;;55.90;50.60;;;;;;;;;;5094739;28;20426;-76
2023/08/25 10:42:14;;;;;;;54.57;49.83;;;;;;;;;;5094498;28;20492;-76
2023/08/25 10:44:42;;;;;;;57.40;52.20;;;;;;;;;;5094332;28;20453;-76
2023/08/25 10:47:10;;;;;;;57.27;52.20;;;;;;;;;;5094296;28;20860;-76
2023/08/25 10:49:39;;;;;;;54.37;49.60;;;;;;;;;;5094326;28;20457;-76
2023/08/25 10:52:14;;;;;;;56.13;50.93;;;;;;;;;;5094132;28;20466;-75
2023/08/25 10:54:41;;;;;;;59.73;53.97;;;;;;;;;;5094515;28;20444;-76
2023/08/25 10:57:21;;;;;;;54.03;49.23;;;;;;;;;;5094445;28;20531;-76
2023/08/25 10:59:52;;;;;;;52.57;47.97;;;;;;;;;;5093421;28;20411;-75
2023/08/25 11:02:35;;;;;;;47.23;43.60;;;;;;;;;;5093994;28;20905;-76
2023/08/25 11:05:21;;;;;;;49.83;45.53;;;;;;;;;;5094343;28;20452;-77
2023/08/25 11:07:49;;;;;;;46.83;43.40;;;;;;;;;;5094305;28;20444;-76
2023/08/25 11:10:16;;;;;;;45.33;41.73;;;;;;;;;;5093671;28;20506;-76
2023/08/25 11:12:43;;;;;;;44.23;41.03;;;;;;;;;;5094154;28;20457;-75
2023/08/25 11:15:11;;;;;;;43.43;40.17;;;;;;;;;;5093902;28;20937;-75
2023/08/25 11:17:38;;;;;;;44.00;40.60;;;;;;;;;;5094221;28;20448;-76
2023/08/25 11:20:05;;;;;;;42.30;39.10;;;;;;;;;;5093447;28;20978;-76
2023/08/25 11:22:32;;;;;;;42.37;38.97;;;;;;;;;;5093584;28;20950;-76
2023/08/25 11:25:01;;;;;;;39.50;36.60;;;;;;;;;;5094029;28;20416;-76
2023/08/25 11:27:28;;;;;;;41.07;38.27;;;;;;;;;;5093998;28;20822;-75
2023/08/25 11:30:08;;;;;;;43.40;39.90;;;;;;;;;;5093147;28;20848;-76
2023/08/25 11:32:36;;;;;;;46.03;42.30;;;;;;;;;;5092748;28;20457;-76
2023/08/25 11:35:04;;;;;;;43.50;40.00;;;;;;;;;;5093423;28;20432;-75
2023/08/25 11:37:31;;;;;;;44.83;40.97;;;;;;;;;;5093416;28;20523;-75
2023/08/25 11:39:58;;;;;;;46.97;43.27;;;;;;;;;;5092418;28;20448;-75
2023/08/25 11:42:26;;;;;;;46.73;43.13;;;;;;;;;;5093085;28;21010;-76
2023/08/25 11:44:53;;;;;;;49.03;44.73;;;;;;;;;;5093261;28;20899;-76
2023/08/25 11:47:20;;;;;;;49.13;45.00;;;;;;;;;;5093562;28;20574;-76
2023/08/25 11:49:49;;;;;;;48.73;44.63;;;;;;;;;;5092881;28;20440;-75
2023/08/25 11:52:16;;;;;;;49.93;45.87;;;;;;;;;;5093334;28;20522;-76
2023/08/25 11:54:47;;;;;;;42.37;39.30;;;;;;;;;;5093243;28;20488;-76
2023/08/25 11:57:14;;;;;;;47.13;43.63;;;;;;;;;;5093252;28;20449;-76
2023/08/25 11:59:43;;;;;;;49.73;45.40;;;;;;;;;;5092806;28;20453;-77
2023/08/25 12:02:15;;;;;;;51.10;47.10;;;;;;;;;;5092924;28;20534;-76
2023/08/25 12:04:53;;;;;;;52.70;48.60;;;;;;;;;;5092893;28;20469;-75
2023/08/25 12:07:22;;;;;;;51.83;47.70;;;;;;;;;;5093104;28;20453;-75
2023/08/25 12:09:54;;;;;;;50.87;46.77;;;;;;;;;;5092514;28;20448;-75
2023/08/25 12:12:21;;;;;;;54.03;49.73;;;;;;;;;;5093097;28;20567;-75
2023/08/25 12:14:51;;;;;;;50.00;45.97;;;;;;;;;;5092914;28;20452;-75
2023/08/25 12:17:21;;;;;;;49.00;45.20;;;;;;;;;;5093145;28;20868;-76
2023/08/25 12:19:49;;;;;;;51.10;46.63;;;;;;;;;;5092898;28;20436;-75
2023/08/25 12:22:16;;;;;;;43.87;40.20;;;;;;;;;;5093581;28;20472;-75
2023/08/25 12:24:43;;;;;;;43.00;39.80;;;;;;;;;;5093244;28;20536;-76
2023/08/25 12:27:10;;;;;;;42.97;40.00;;;;;;;;;;5093134;28;20423;-76
2023/08/25 12:29:37;;;;;;;38.63;35.40;;;;;;;;;;5092828;28;20449;-76
2023/08/25 12:32:07;;;;;;;40.07;37.47;;;;;;;;;;5091441;28;20807;-76
2023/08/25 12:34:34;;;;;;;34.40;32.10;;;;;;;;;;5092800;28;20407;-75
2023/08/25 12:37:02;;;;;;;39.33;36.67;;;;;;;;;;5092900;28;20485;-76
2023/08/25 12:39:29;;;;;;;34.10;32.00;;;;;;;;;;5092277;28;20477;-75
2023/08/25 12:41:56;;;;;;;32.73;30.83;;;;;;;;;;5091893;28;20416;-76
2023/08/25 12:44:23;;;;;;;32.37;30.47;;;;;;;;;;5092308;28;20544;-75
2023/08/25 12:46:50;;;;;;;31.87;29.93;;;;;;;;;;5092674;28;20429;-76
2023/08/25 12:49:19;;;;;;;31.43;29.40;;;;;;;;;;5092306;28;20910;-76
2023/08/25 12:51:46;;;;;;;31.70;29.80;;;;;;;;;;5090971;28;20433;-76
2023/08/25 12:54:13;;;;;;;29.30;27.60;;;;;;;;;;5092571;28;20815;-75
2023/08/25 12:56:40;;;;;;;28.93;27.13;;;;;;;;;;5091962;28;20942;-76
2023/08/25 12:59:07;;;;;;;29.03;27.33;;;;;;;;;;5092333;28;20460;-76
2023/08/25 13:01:34;;;;;;;25.47;23.87;;;;;;;;;;5091185;28;20457;-76
2023/08/25 13:04:01;;;;;;;27.20;25.70;;;;;;;;;;5092248;28;20496;-77
2023/08/25 13:06:30;;;;;;;25.70;24.20;;;;;;;;;;5092046;28;20543;-75
2023/08/25 13:08:57;;;;;;;28.90;27.00;;;;;;;;;;5092110;28;20470;-76
2023/08/25 13:11:24;;;;;;;27.10;25.57;;;;;;;;;;5091459;28;21073;-76
2023/08/25 13:13:51;;;;;;;25.73;24.23;;;;;;;;;;5092057;28;20468;-75
2023/08/25 13:16:18;;;;;;;25.70;24.20;;;;;;;;;;5091947;28;20445;-76
2023/08/25 13:18:45;;;;;;;26.63;25.20;;;;;;;;;;5091739;28;20418;-76
2023/08/25 13:21:12;;;;;;;26.07;24.60;;;;;;;;;;5091206;28;20948;-76
2023/08/25 13:23:41;;;;;;;24.40;23.00;;;;;;;;;;5091755;28;20484;-76
2023/08/25 13:26:08;;;;;;;24.40;23.00;;;;;;;;;;5091845;28;20447;-76
2023/08/25 13:28:35;;;;;;;22.57;21.17;;;;;;;;;;5091840;28;20918;-75
2023/08/25 13:31:02;;;;;;;22.10;20.70;;;;;;;;;;5091334;28;20419;-76
2023/08/25 13:33:29;;;;;;;20.87;19.63;;;;;;;;;;5090082;28;20464;-76
2023/08/25 13:35:56;;;;;;;19.27;18.33;;;;;;;;;;5092082;28;20396;-76
2023/08/25 13:38:23;;;;;;;21.10;19.80;;;;;;;;;;5091581;28;20506;-76
2023/08/25 13:40:52;;;;;;;20.10;18.87;;;;;;;;;;5091227;28;20419;-77
2023/08/25 13:43:19;;;;;;;18.87;17.77;;;;;;;;;;5091528;28;20492;-76
2023/08/25 13:45:46;;;;;;;19.57;18.50;;;;;;;;;;5091393;28;20415;-76
2023/08/25 13:48:13;;;;;;;19.40;18.30;;;;;;;;;;5091768;28;20496;-75
2023/08/25 13:50:40;;;;;;;19.23;18.13;;;;;;;;;;5091323;28;20453;-77
2023/08/25 13:53:08;;;;;;;20.20;19.10;;;;;;;;;;5091317;28;20456;-76
2023/08/25 13:55:35;;;;;;;20.17;18.97;;;;;;;;;;5091646;28;20485;-76
2023/08/25 13:58:03;;;;;;;19.50;18.40;;;;;;;;;;5091817;28;20820;-76
2023/08/25 14:00:30;;;;;;;20.77;19.57;;;;;;;;;;5090724;28;20456;-76
2023/08/25 14:02:57;;;;;;;21.13;19.93;;;;;;;;;;5092545;28;20463;-76
2023/08/25 14:05:24;;;;;;;19.87;18.87;;;;;;;;;;5095416;28;20423;-76
2023/08/25 14:07:51;;;;;;;19.50;18.40;;;;;;;;;;5095440;28;20448;-76
2023/08/25 14:10:18;;;;;;;20.67;19.47;;;;;;;;;;5094624;28;20827;-76
2023/08/25 14:12:45;;;;;;;20.03;18.93;;;;;;;;;;5095463;28;20551;-76
2023/08/25 14:15:14;;;;;;;19.47;18.37;;;;;;;;;;5095288;28;20448;-76
2023/08/25 14:17:41;;;;;;;20.63;19.53;;;;;;;;;;5095306;28;20448;-76
2023/08/25 14:20:09;;;;;;;19.30;18.30;;;;;;;;;;5094257;28;20775;-76